Aeroporto :
LOGIN :

Iscrizione | Disclaimer

   EN    FR    IT 

 










Sommario :    VFR   VFR Marginale   IFR   IFR Intensivo   IFR Molto Intensivo
Visibilità : 
Base nubi : 
>= 8 km
>= 3000ft
5 / 8 km
1000 / 3000 ft
1500m / 5 km
500 / 1000 ft
800 / 1500m
200 / 500 ft
< 800m
< 200 ft
Simboli :   Temporali  Nebbia  Neve Forte  Precipitazioni Forti  Vento > 20 kt
SIGMETs :   Varie  Temporali  Ghiacco  Turbolenza  Onda orograficha  Ceneri Vulcaniche






- Altitudine del aeroporto : 427 ft
- Codice IATA : CIA


LIRA - Roma Ciampino

ULTIMO METAR :
  • 232320Z VRB02KT CAVOK 16/09 Q1016

METARs OBSOLETI :
  • 232250Z VRB02KT CAVOK 18/08 Q1016
  • 232220Z VRB02KT CAVOK 18/07 Q1016
  • 232150Z 12004KT 090V160 CAVOK 18/08 Q1016
  • 232120Z 09003KT 040V180 CAVOK 18/08 Q1016
  • 232050Z 08004KT 020V140 CAVOK 20/08 Q1016

TAF TAF LIRA
Valido dal 24 a 00 ore il 25 a 00 ore UTC


232300Z 2400/2424 15008KT 9999 FEW050
TEMPO 2415/2420 4000 TSRA



MetMap, La meteo Aeronautica in un colpo d'occhio ! - Copyright ORBIFLY Dicembre 2007 - Disclaimer

ORBIFLY MET'MAP TEAM :

Programmazione e sviluppo : Alexandra Zaïnal
Concezione e sviluppo : Baudouin d'Aumeries
Co-Programmazione e sviluppo : Marc-Olivier Méhu
Supporto tecnico e logistico : Manuel Goepfert
Aiuto per la traduzione : Arnaldo La Scala

Contatto : metmap@orbifly.com




FONTI E CREDITI :

   NOAA